Terminal Aerodrome Forecast
Issued by NWS Billings, MT

Home | Current Version | Previous Version | Text Only | Print | Product List | Glossary On
Versions: 1 2 3 4 5 6 7 8 9 10 11 12 13 14 15 16 17 18 19 20 21 22 23 24 25 26 27 28 29 30 31 32
000
FTUS45 KBYZ 021732
TAFSHR
TAF
KSHR 021732Z 0218/0318 32008KT P6SM SCT120
     FM022300 VRB05KT P6SM VCTS SCT100CB
     FM030700 VRB04KT P6SM VCFG BKN025
     FM031000 VRB03KT 5SM BR SCT005 BKN010
     FM031500 VRB03KT P6SM SCT010 BKN150=

USA.gov is the U.S. government's official web portal to all federal, state and local government web resources and services.